Time;durP1;ratioP1;P1;durP2;ratioP2;P2;SDS_P1;SDS_P2;PMS_P1;PMS_P2;Temp;Humidity;BMP_temperature;BMP_pressure;BME280_temperature;BME280_humidity;BME280_pressure;Samples;Min_cycle;Max_cycle;Signal;HPM_P1;HPM_P2
2023/11/23 00:00:53;;;;;;;;;17.75;16.25;;;;;11.12;66.54;102543.28;4845308;29;45269;-67
2023/11/23 00:03:18;;;;;;;;;26.25;23.00;;;;;11.04;66.61;102524.66;4846231;29;45296;-67
2023/11/23 00:05:44;;;;;;;;;25.50;25.50;;;;;11.23;67.14;102559.28;4846050;29;45421;-67
2023/11/23 00:08:09;;;;;;;;;27.00;27.00;;;;;10.96;67.04;102518.44;4846296;29;45282;-67
2023/11/23 00:10:35;;;;;;;;;25.25;21.25;;;;;11.13;66.84;102548.63;4855097;29;45356;-67
2023/11/23 00:13:00;;;;;;;;;23.50;21.50;;;;;11.16;67.01;102549.50;4839179;29;45770;-67
2023/11/23 00:15:26;;;;;;;;;24.50;24.50;;;;;10.93;67.31;102510.44;4845789;29;45421;-67
2023/11/23 00:17:52;;;;;;;;;23.25;19.50;;;;;11.19;67.41;102555.72;4846035;29;45502;-67
2023/11/23 00:20:17;;;;;;;;;25.00;24.50;;;;;10.95;67.20;102516.66;4845417;29;47193;-67
2023/11/23 00:22:45;;;;;;;;;27.75;24.50;;;;;11.03;67.37;102528.19;4846076;29;45646;-67
2023/11/23 00:25:13;;;;;;;;;30.00;22.50;;;;;11.22;67.91;102547.66;4845331;29;47262;-67
2023/11/23 00:27:46;;;;;;;;;26.75;25.50;;;;;11.09;67.74;102520.16;4867220;29;45317;-67
2023/11/23 00:30:15;;;;;;;;;27.75;25.00;;;;;11.09;67.89;102512.13;4838870;29;45380;-67
2023/11/23 00:32:40;;;;;;;;;30.75;26.25;;;;;11.16;67.91;102512.06;4833888;29;45504;-67
2023/11/23 00:35:06;;;;;;;;;21.75;20.25;;;;;10.94;67.84;102477.47;4844150;29;46731;-67
2023/11/23 00:37:31;;;;;;;;;25.50;23.50;;;;;11.24;68.18;102529.88;4845978;29;45919;-67
2023/11/23 00:40:07;;;;;;;;;;;;;;;;;;;;;
2023/11/23 00:42:33;;;;;;;;;28.50;25.00;;;;;11.18;67.75;102529.91;4844358;29;74206;-67
2023/11/23 00:45:01;;;;;;;;;22.75;22.75;;;;;11.14;68.18;102520.09;4857401;29;47083;-67
2023/11/23 00:47:26;;;;;;;;;26.25;25.00;;;;;10.93;68.40;102468.56;4837818;29;45249;-67
2023/11/23 00:49:53;;;;;;;;;25.50;24.00;;;;;11.04;68.63;102481.88;4844385;29;45461;-67
2023/11/23 00:52:19;;;;;;;;;29.50;26.50;;;;;11.13;68.60;102503.19;4845198;29;45425;-67
2023/11/23 00:54:47;;;;;;;;;24.25;23.75;;;;;11.16;68.47;102504.97;4853690;29;47914;-67
2023/11/23 00:57:13;;;;;;;;;25.00;22.25;;;;;11.08;68.66;102497.00;4845757;29;45561;-67
2023/11/23 00:59:38;;;;;;;;;25.50;23.50;;;;;10.92;69.07;102481.94;4844059;29;45477;-67
2023/11/23 01:02:04;;;;;;;;;26.00;23.75;;;;;10.95;68.59;102468.56;4850360;29;45559;-67
2023/11/23 01:04:33;;;;;;;;;26.00;22.00;;;;;10.96;69.01;102464.09;4836413;29;46893;-67
2023/11/23 01:07:02;;;;;;;;;26.75;25.75;;;;;11.10;69.63;102489.84;4848938;29;45280;-67
2023/11/23 01:09:27;;;;;;;;;25.25;25.25;;;;;11.13;69.23;102483.59;4847593;29;45552;-67
2023/11/23 01:11:55;;;;;;;;;21.00;21.00;;;;;10.72;68.96;102421.50;4852161;29;45551;-66
2023/11/23 01:14:20;;;;;;;;;21.25;18.50;;;;;11.16;69.36;102483.59;4848366;29;46930;-67
2023/11/23 01:16:50;;;;;;;;;20.25;20.25;;;;;11.09;69.11;102474.72;4848685;29;45321;-67
2023/11/23 01:19:15;;;;;;;;;21.00;20.00;;;;;11.00;69.63;102461.41;4851333;29;45588;-67
2023/11/23 01:21:41;;;;;;;;;20.50;16.75;;;;;11.09;69.65;102473.81;4847430;29;45622;-67
2023/11/23 01:24:11;;;;;;;;;16.75;15.25;;;;;11.20;69.95;102498.69;4846559;29;47463;-67
2023/11/23 01:26:37;;;;;;;;;16.75;15.50;;;;;11.10;69.82;102478.28;4848543;29;45788;-67
2023/11/23 01:29:05;;;;;;;;;21.25;17.50;;;;;11.18;70.06;102484.47;4848570;29;45496;-67
2023/11/23 01:31:37;;;;;;;;;19.25;15.25;;;;;11.23;69.87;102485.31;4847633;29;45714;-67
2023/11/23 01:34:03;;;;;;;;;19.25;18.00;;;;;11.14;69.93;102474.66;4844239;29;47402;-67
2023/11/23 01:36:29;;;;;;;;;20.50;17.50;;;;;10.96;69.68;102451.66;4845350;29;45262;-67
2023/11/23 01:38:54;;;;;;;;;14.50;11.75;;;;;10.87;70.00;102423.19;4860052;29;45538;-67
2023/11/23 01:41:20;;;;;;;;;24.75;20.25;;;;;11.27;69.58;102510.22;4847701;29;45510;-67
2023/11/23 01:43:48;;;;;;;;;17.00;16.00;;;;;11.08;69.45;102497.00;4850910;29;48076;-67
2023/11/23 01:46:16;;;;;;;;;19.25;16.00;;;;;10.93;70.17;102481.06;4848057;29;45474;-67
2023/11/23 01:48:42;;;;;;;;;16.00;16.00;;;;;10.89;70.20;102477.53;4848603;29;45401;-67
2023/11/23 01:51:11;;;;;;;;;19.50;16.00;;;;;10.91;70.27;102480.19;4846283;29;45310;-67
2023/11/23 01:53:37;;;;;;;;;16.75;16.25;;;;;11.02;70.22;102502.34;4853043;29;45433;-67
2023/11/23 01:56:08;;;;;;;;;19.00;19.00;;;;;10.82;70.47;102470.41;4850589;29;45679;-67
2023/11/23 01:58:33;;;;;;;;;17.50;17.00;;;;;10.96;70.33;102497.06;4855135;29;45458;-67
2023/11/23 02:00:59;;;;;;;;;19.00;16.50;;;;;10.80;70.59;102471.34;4846576;29;45414;-67
2023/11/23 02:03:27;;;;;;;;;17.75;16.25;;;;;11.05;70.81;102512.16;4846334;29;45442;-67
2023/11/23 02:05:53;;;;;;;;;20.25;18.50;;;;;11.04;70.66;102511.28;4847759;29;45405;-67
2023/11/23 02:08:21;;;;;;;;;18.00;17.00;;;;;10.86;70.67;102485.53;4845199;29;45518;-67
2023/11/23 02:10:48;;;;;;;;;21.25;20.75;;;;;10.66;70.81;102453.59;4846244;29;45622;-67
2023/11/23 02:13:14;;;;;;;;;17.00;16.50;;;;;10.94;71.09;102501.50;4847172;29;46207;-67
2023/11/23 02:15:39;;;;;;;;;14.00;14.00;;;;;10.91;71.04;102499.75;4845633;29;45784;-67
2023/11/23 02:18:07;;;;;;;;;17.00;17.00;;;;;10.86;71.26;102492.66;4847878;29;45266;-67
2023/11/23 02:20:33;;;;;;;;;15.00;13.25;;;;;10.82;71.48;102494.47;4845338;29;45744;-67
2023/11/23 02:23:11;;;;;;;;;;;;;;;;;;;;;
2023/11/23 02:25:37;;;;;;;;;17.25;16.00;;;;;10.90;71.96;102515.81;4845985;29;71264;-64
2023/11/23 02:28:05;;;;;;;;;23.25;21.00;;;;;10.88;71.95;102510.47;4845138;29;45419;-64
2023/11/23 02:30:32;;;;;;;;;19.75;19.00;;;;;10.66;71.70;102472.31;4845480;29;46405;-64
2023/11/23 02:33:01;;;;;;;;;24.75;21.75;;;;;10.61;71.35;102457.19;4845215;29;47183;-64
2023/11/23 02:35:27;;;;;;;;;21.25;19.00;;;;;10.90;71.65;102505.13;4842140;29;45793;-64
2023/11/23 02:37:53;;;;;;;;;15.00;10.75;;;;;10.59;71.60;102458.97;4857778;29;45392;-64
2023/11/23 02:40:18;;;;;;;;;18.75;16.50;;;;;10.92;72.01;102504.19;4850368;29;46420;-64
2023/11/23 02:42:44;;;;;;;;;18.75;15.00;;;;;10.68;72.03;102470.50;4861394;29;47076;-64
2023/11/23 02:45:13;;;;;;;;;15.25;15.25;;;;;10.81;72.13;102483.78;4846431;29;45411;-64
2023/11/23 02:47:41;;;;;;;;;24.25;18.75;;;;;10.85;72.08;102483.75;4846544;29;45498;-64
2023/11/23 02:50:07;;;;;;;;;20.50;17.75;;;;;10.94;72.33;102504.19;4846810;29;45654;-64
2023/11/23 02:52:33;;;;;;;;;21.50;20.25;;;;;10.80;72.07;102480.22;4844559;29;46258;-64
2023/11/23 02:55:01;;;;;;;;;16.50;16.50;;;;;10.97;72.44;102504.19;4853962;29;45486;-64
2023/11/23 02:57:26;;;;;;;;;20.50;19.75;;;;;10.88;72.58;102482.88;4845994;29;45503;-64
2023/11/23 02:59:52;;;;;;;;;20.00;17.25;;;;;10.96;72.75;102498.84;4846931;29;45374;-64
2023/11/23 03:02:17;;;;;;;;;21.75;19.00;;;;;10.71;72.67;102454.47;4844073;29;48036;-64
2023/11/23 03:04:43;;;;;;;;;22.50;19.25;;;;;10.59;72.92;102438.50;4837623;29;45500;-64
2023/11/23 03:07:08;;;;;;;;;15.25;14.75;;;;;10.94;72.81;102494.41;4845400;29;45375;-64
2023/11/23 03:09:34;;;;;;;;;19.00;19.00;;;;;10.67;72.66;102439.34;4845710;29;45661;-64
2023/11/23 03:12:00;;;;;;;;;25.25;19.00;;;;;10.67;72.85;102438.47;4846273;29;46132;-64
2023/11/23 03:14:27;;;;;;;;;18.00;18.00;;;;;10.98;72.98;102499.75;4845309;29;45544;-64
2023/11/23 03:16:53;;;;;;;;;19.00;18.00;;;;;10.87;72.81;102473.94;4846940;29;45368;-64
2023/11/23 03:19:18;;;;;;;;;21.00;18.00;;;;;11.08;73.18;102506.81;4845860;29;46037;-64
2023/11/23 03:21:44;;;;;;;;;21.00;18.00;;;;;10.90;73.14;102481.94;4850544;29;47012;-64
2023/11/23 03:24:09;;;;;;;;;25.50;20.75;;;;;10.96;72.97;102486.38;4842626;29;45461;-64
2023/11/23 03:26:36;;;;;;;;;21.00;19.75;;;;;11.06;73.26;102506.81;4843843;29;45798;-64
2023/11/23 03:29:01;;;;;;;;;18.00;16.25;;;;;10.92;73.07;102473.94;4845538;29;45391;-64
2023/11/23 03:31:29;;;;;;;;;17.75;17.75;;;;;10.99;73.40;102481.00;4845833;29;45675;-64
2023/11/23 03:33:54;;;;;;;;;14.75;14.75;;;;;11.15;73.10;102502.31;4841476;29;45657;-64
2023/11/23 03:36:20;;;;;;;;;19.75;19.75;;;;;11.01;73.11;102483.66;4856620;29;45419;-64
2023/11/23 03:38:45;;;;;;;;;20.00;17.75;;;;;11.19;73.38;102501.38;4846914;29;45531;-64
2023/11/23 03:41:13;;;;;;;;;21.50;17.00;;;;;11.17;73.59;102496.03;4841401;29;48218;-64
2023/11/23 03:43:39;;;;;;;;;19.00;18.75;;;;;11.11;73.60;102486.28;4839181;29;45395;-64
2023/11/23 03:46:06;;;;;;;;;21.00;20.00;;;;;11.12;73.63;102484.50;4846566;29;45335;-64
2023/11/23 03:48:32;;;;;;;;;24.25;17.75;;;;;11.13;73.51;102487.16;4846663;29;45400;-64
2023/11/23 03:50:57;;;;;;;;;17.25;16.00;;;;;11.22;73.70;102506.69;4845760;29;45647;-64
2023/11/23 03:53:23;;;;;;;;;18.75;18.50;;;;;11.20;73.76;102509.38;4845183;29;45495;-64
2023/11/23 03:55:48;;;;;;;;;21.75;21.00;;;;;11.19;73.49;102501.38;4851875;29;45729;-64
2023/11/23 03:58:14;;;;;;;;;19.50;19.25;;;;;11.22;73.86;102502.22;4845705;29;45358;-64
2023/11/23 04:00:40;;;;;;;;;23.50;19.00;;;;;10.91;73.87;102448.13;4843684;29;47093;-65
2023/11/23 04:03:08;;;;;;;;;21.25;18.00;;;;;11.10;73.69;102476.47;4844364;29;45471;-64
2023/11/23 04:05:33;;;;;;;;;19.75;17.25;;;;;11.29;74.25;102503.97;4845055;29;45415;-65
2023/11/23 04:07:58;;;;;;;;;18.00;17.50;;;;;11.13;74.18;102475.59;4844889;29;45361;-64
2023/11/23 04:10:26;;;;;;;;;17.25;13.00;;;;;11.31;74.16;102498.63;4845360;29;46012;-64
2023/11/23 04:12:51;;;;;;;;;18.75;16.25;;;;;11.08;74.44;102448.88;4842532;29;45771;-67
2023/11/23 04:15:17;;;;;;;;;19.25;15.00;;;;;11.30;73.94;102470.97;4855899;29;45687;-67
2023/11/23 04:17:49;;;;;;;;;16.75;16.50;;;;;11.48;74.42;102498.50;4845956;29;45584;-67
2023/11/23 04:20:15;;;;;;;;;16.25;11.25;;;;;11.27;74.58;102454.97;4844483;29;48228;-67
2023/11/23 04:22:41;;;;;;;;;11.00;11.00;;;;;11.48;74.91;102480.66;4842211;29;45453;-67
2023/11/23 04:25:07;;;;;;;;;12.50;11.50;;;;;11.46;74.71;102471.75;4846229;29;45555;-67
2023/11/23 04:27:33;;;;;;;;;7.00;7.00;;;;;11.40;75.29;102458.44;4845979;29;45499;-67
2023/11/23 04:29:59;;;;;;;;;12.25;9.50;;;;;11.40;75.20;102458.44;4848158;29;47092;-67
2023/11/23 04:32:24;;;;;;;;;9.00;9.00;;;;;11.31;74.99;102451.38;4851403;29;45804;-67
2023/11/23 04:34:52;;;;;;;;;8.75;8.75;;;;;11.42;75.17;102453.94;4844922;29;45475;-67
2023/11/23 04:37:21;;;;;;;;;12.50;8.75;;;;;11.47;75.16;102470.84;4828076;29;45502;-67
2023/11/23 04:39:46;;;;;;;;;6.25;6.25;;;;;11.52;75.18;102470.81;4844988;29;47184;-67
2023/11/23 04:42:12;;;;;;;;;8.50;8.50;;;;;11.55;75.43;102469.91;4847544;29;45674;-67
2023/11/23 04:44:37;;;;;;;;;9.75;6.00;;;;;11.70;75.73;102491.16;4862183;29;45385;-67
2023/11/23 04:47:11;;;;;;;;;11.00;9.00;;;;;11.72;75.54;102491.16;4860536;29;45456;-67
2023/11/23 04:49:36;;;;;;;;;10.00;8.25;;;;;11.79;75.68;102507.13;4851373;29;45468;-67
2023/11/23 04:52:05;;;;;;;;;11.25;11.25;;;;;11.80;75.97;102505.34;4850655;29;45277;-67
2023/11/23 04:54:30;;;;;;;;;9.75;7.25;;;;;11.79;75.93;102499.09;4854877;29;45472;-67
2023/11/23 04:57:04;;;;;;;;;7.50;6.25;;;;;11.49;76.10;102438.75;4851744;29;45433;-67
2023/11/23 04:59:29;;;;;;;;;5.00;4.25;;;;;11.78;76.22;102483.09;4850878;29;45537;-67
2023/11/23 05:01:57;;;;;;;;;6.00;6.00;;;;;11.50;76.17;102437.84;4851265;29;45510;-67
2023/11/23 05:04:35;;;;;;;;;;;;;;;;;;;;;
2023/11/23 05:07:05;;;;;;;;;10.00;6.50;;;;;11.84;76.11;102489.25;4858017;29;72708;-67
2023/11/23 05:09:31;;;;;;;;;5.25;5.25;;;;;11.61;76.16;102444.00;4850810;29;45418;-67
2023/11/23 05:11:56;;;;;;;;;10.00;8.50;;;;;11.86;75.91;102500.81;4850602;29;45748;-67
2023/11/23 05:14:21;;;;;;;;;9.00;9.00;;;;;11.76;76.41;102476.84;4851793;29;45952;-67
2023/11/23 05:16:47;;;;;;;;;9.00;6.75;;;;;11.95;76.56;102507.03;4856433;29;45805;-67
2023/11/23 05:19:12;;;;;;;;;8.00;8.00;;;;;11.70;76.64;102455.50;4850026;29;47121;-67
2023/11/23 05:21:38;;;;;;;;;5.00;5.00;;;;;11.92;76.48;102497.22;4851141;29;45291;-67
2023/11/23 05:24:04;;;;;;;;;6.75;5.25;;;;;11.92;76.57;102491.00;4852850;29;49116;-67
2023/11/23 05:26:30;;;;;;;;;12.25;9.75;;;;;12.02;76.65;102500.69;4851350;29;46126;-67
2023/11/23 05:28:55;;;;;;;;;9.25;6.75;;;;;11.94;76.59;102487.38;4850799;29;45372;-67
2023/11/23 05:31:20;;;;;;;;;8.50;8.50;;;;;11.91;76.69;102475.78;4851318;29;45307;-67
2023/11/23 05:33:48;;;;;;;;;11.00;8.25;;;;;11.99;76.89;102480.19;4850392;29;45400;-67
2023/11/23 05:36:24;;;;;;;;;;;;;;;;;;;;;
2023/11/23 05:38:52;;;;;;;;;7.75;7.50;;;;;11.88;76.85;102466.03;4848056;29;75077;-67
2023/11/23 05:41:17;;;;;;;;;9.00;7.00;;;;;11.89;77.06;102470.44;4850791;29;45531;-67
2023/11/23 05:43:42;;;;;;;;;6.25;6.25;;;;;11.79;76.93;102452.72;4852102;29;45637;-67
2023/11/23 05:46:10;;;;;;;;;10.00;9.00;;;;;11.79;77.55;102442.03;4849342;29;46003;-67
2023/11/23 05:48:38;;;;;;;;;11.50;9.50;;;;;11.85;77.05;102434.81;4852569;29;47117;-67
2023/11/23 05:51:03;;;;;;;;;8.50;7.50;;;;;11.77;77.14;102417.97;4848176;29;45486;-67
2023/11/23 05:53:29;;;;;;;;;10.00;9.00;;;;;11.98;77.16;102449.00;4847647;29;45463;-67
2023/11/23 05:55:54;;;;;;;;;9.50;8.75;;;;;11.85;77.53;102429.47;4842347;29;45592;-67
2023/11/23 05:58:20;;;;;;;;;6.75;6.25;;;;;11.82;77.09;102410.78;4842339;29;46498;-67
2023/11/23 06:00:45;;;;;;;;;12.25;8.25;;;;;11.98;77.41;102445.44;4847760;29;45332;-67
2023/11/23 06:03:13;;;;;;;;;8.75;8.75;;;;;12.12;77.50;102464.00;4846692;29;45431;-67
2023/11/23 06:05:38;;;;;;;;;10.00;9.00;;;;;12.09;77.87;102454.22;4846028;29;45698;-67
2023/11/23 06:08:04;;;;;;;;;9.75;9.50;;;;;12.13;77.57;102458.66;4846500;29;48229;-67
2023/11/23 06:10:29;;;;;;;;;12.75;9.25;;;;;12.12;77.75;102445.28;4848112;29;45307;-67
2023/11/23 06:12:56;;;;;;;;;10.25;9.75;;;;;12.28;77.87;102465.63;4846060;29;45355;-67
2023/11/23 06:15:26;;;;;;;;;10.25;10.25;;;;;12.05;77.84;102423.94;4846793;29;45414;-67
2023/11/23 06:17:52;;;;;;;;;12.50;9.50;;;;;12.11;77.85;102420.31;4847875;29;45510;-67
2023/11/23 06:20:20;;;;;;;;;9.25;8.50;;;;;12.15;77.91;102427.38;4849948;29;45287;-67
2023/11/23 06:22:48;;;;;;;;;7.75;7.25;;;;;12.13;78.08;102428.28;4852395;29;45515;-67
2023/11/23 06:25:14;;;;;;;;;9.50;6.75;;;;;12.04;78.18;102400.75;4851293;29;45682;-67
2023/11/23 06:27:40;;;;;;;;;11.00;9.00;;;;;12.40;78.52;102464.56;4847587;29;46495;-67
2023/11/23 06:30:06;;;;;;;;;11.00;8.50;;;;;12.20;78.16;102433.56;4859523;29;45352;-67
2023/11/23 06:32:34;;;;;;;;;13.25;10.25;;;;;12.16;78.23;102410.44;4846291;29;45530;-67
2023/11/23 06:34:59;;;;;;;;;10.50;8.50;;;;;12.38;78.24;102448.53;4845295;29;45355;-67
2023/11/23 06:37:25;;;;;;;;;11.25;8.25;;;;;12.16;78.22;102414.88;4846400;29;48094;-67
2023/11/23 06:39:53;;;;;;;;;13.75;11.00;;;;;12.47;78.40;102468.94;4847484;29;45380;-67
2023/11/23 06:42:20;;;;;;;;;10.75;8.75;;;;;12.22;78.77;102425.53;4846383;29;45447;-67
2023/11/23 06:44:45;;;;;;;;;9.75;8.25;;;;;12.32;78.74;102447.72;4850785;29;45458;-67
2023/11/23 06:47:14;;;;;;;;;10.50;9.00;;;;;12.16;78.63;102409.53;4853529;29;45484;-67
2023/11/23 06:49:42;;;;;;;;;10.00;8.25;;;;;12.46;79.03;102461.81;4850535;29;45253;-67
2023/11/23 06:52:08;;;;;;;;;7.00;7.00;;;;;12.36;79.14;102447.66;4847686;29;45546;-67
2023/11/23 06:54:36;;;;;;;;;10.00;9.00;;;;;12.37;78.85;102444.06;4856716;29;45376;-67
2023/11/23 06:57:02;;;;;;;;;13.75;10.75;;;;;12.50;79.36;102474.25;4846796;29;45349;-67
2023/11/23 06:59:30;;;;;;;;;9.00;9.00;;;;;12.51;79.06;102480.50;4839028;29;45559;-64
2023/11/23 07:01:56;;;;;;;;;9.00;8.00;;;;;12.55;79.06;102493.84;4851226;29;45460;-67
2023/11/23 07:04:24;;;;;;;;;12.50;8.25;;;;;12.49;79.34;102482.31;4845866;29;45677;-67
2023/11/23 07:06:51;;;;;;;;;12.25;8.50;;;;;12.23;79.66;102433.53;4850048;29;46249;-67
2023/11/23 07:09:20;;;;;;;;;7.00;7.00;;;;;12.36;79.56;102441.41;4845539;29;45411;-67
2023/11/23 07:11:46;;;;;;;;;7.50;7.25;;;;;12.46;79.88;102458.25;4845117;29;45665;-67
2023/11/23 07:14:11;;;;;;;;;11.75;10.25;;;;;12.39;79.87;102433.34;4846542;29;45352;-67
2023/11/23 07:16:37;;;;;;;;;7.50;7.50;;;;;12.43;79.94;102456.50;4843558;29;48224;-65
2023/11/23 07:19:02;;;;;;;;;7.50;7.00;;;;;12.30;80.17;102436.16;4843519;29;46028;-67
2023/11/23 07:21:28;;;;;;;;;12.50;10.00;;;;;12.50;80.01;102468.91;4838384;29;45576;-68
2023/11/23 07:23:53;;;;;;;;;10.75;7.75;;;;;12.45;80.03;102440.44;4844011;29;45468;-67
2023/11/23 07:26:19;;;;;;;;;8.75;6.75;;;;;12.40;80.31;102437.78;4842132;29;46931;-66
2023/11/23 07:28:44;;;;;;;;;8.25;7.50;;;;;12.59;80.43;102465.22;4848099;29;45672;-64
2023/11/23 07:31:09;;;;;;;;;7.00;7.00;;;;;12.35;80.46;102420.91;4847062;29;45563;-64
2023/11/23 07:33:36;;;;;;;;;8.00;8.00;;;;;12.54;80.65;102445.63;4841132;29;45344;-64
2023/11/23 07:36:03;;;;;;;;;7.00;6.75;;;;;12.58;80.60;102456.31;4855642;29;45462;-66
2023/11/23 07:38:28;;;;;;;;;10.00;7.00;;;;;12.52;80.68;102444.78;4845490;29;45524;-66
2023/11/23 07:40:56;;;;;;;;;8.25;8.25;;;;;12.62;80.64;102456.28;4843770;29;45643;-66
2023/11/23 07:43:22;;;;;;;;;11.50;11.00;;;;;12.55;81.03;102442.94;4846729;29;45697;-66
2023/11/23 07:45:47;;;;;;;;;9.00;8.25;;;;;12.65;81.02;102465.13;4832080;29;47534;-63
2023/11/23 07:48:15;;;;;;;;;6.25;6.25;;;;;12.53;81.04;102436.72;4848315;29;45468;-64
2023/11/23 07:50:43;;;;;;;;;6.25;6.25;;;;;12.57;81.37;102438.44;4848052;29;45407;-65
2023/11/23 07:53:30;;;;;;;;;8.75;8.00;;;;;12.49;81.45;102424.25;4847902;29;47343;-63
2023/11/23 07:56:16;;;;;;;;;6.75;6.50;;;;;12.54;81.20;102430.44;4846063;29;46333;-64
2023/11/23 07:58:50;;;;;;;;;8.50;7.25;;;;;12.76;81.23;102459.63;4836513;29;45492;-64
2023/11/23 08:01:21;;;;;;;;;9.75;7.25;;;;;12.60;81.46;102440.22;4842062;29;45481;-64
2023/11/23 08:03:48;;;;;;;;;10.75;7.00;;;;;12.44;81.71;102425.25;4840956;29;46863;-65
2023/11/23 08:06:14;;;;;;;;;8.50;8.25;;;;;12.63;81.53;102466.97;4839335;29;47701;-66
2023/11/23 08:08:40;;;;;;;;;8.25;8.25;;;;;12.60;81.50;102459.84;4841070;29;45412;-66
2023/11/23 08:11:18;;;;;;;;;;;;;;;;;;;;;
2023/11/23 08:13:44;;;;;;;;;10.75;10.00;;;;;12.69;81.37;102450.78;4849072;29;73230;-64
2023/11/23 08:16:10;;;;;;;;;11.50;10.75;;;;;12.57;81.67;102438.44;4846770;29;46453;-65
2023/11/23 08:18:35;;;;;;;;;13.25;11.00;;;;;12.67;81.74;102466.00;4848864;29;46168;-65
2023/11/23 08:21:01;;;;;;;;;12.50;10.25;;;;;12.47;81.80;102439.47;4852046;29;45890;-66
2023/11/23 08:23:30;;;;;;;;;13.25;11.75;;;;;12.71;82.01;102488.28;4831955;29;45530;-66
2023/11/23 08:25:56;;;;;;;;;18.00;13.25;;;;;12.71;81.97;102488.28;4838130;29;47353;-66
2023/11/23 08:28:22;;;;;;;;;13.50;12.00;;;;;12.50;81.94;102458.19;4836527;29;45573;-64
2023/11/23 08:30:47;;;;;;;;;13.75;7.75;;;;;12.51;82.22;102459.97;4848558;29;45699;-64
2023/11/23 08:33:14;;;;;;;;;10.75;10.50;;;;;12.61;82.35;102484.81;4845586;29;45601;-64
2023/11/23 08:35:39;;;;;;;;;11.75;11.75;;;;;12.50;82.36;102471.59;4845434;29;45723;-66
2023/11/23 08:38:05;;;;;;;;;3.50;1.50;;;;;12.63;82.18;102476.78;4843825;29;45514;-66
2023/11/23 08:40:31;;;;;;;;;13.25;11.75;;;;;12.51;82.10;102445.69;4839463;29;45731;-64
2023/11/23 08:42:56;;;;;;;;;6.00;4.75;;;;;12.76;82.55;102495.38;4838605;29;46021;-66
2023/11/23 08:45:22;;;;;;;;;12.00;12.00;;;;;12.63;82.59;102468.72;4859586;29;47521;-66
2023/11/23 08:47:47;;;;;;;;;12.25;11.50;;;;;12.67;82.41;102482.06;4840178;29;45993;-66
2023/11/23 08:50:15;;;;;;;;;8.00;7.25;;;;;12.90;82.52;102505.00;4852603;29;45427;-66
2023/11/23 08:52:41;;;;;;;;;14.00;10.75;;;;;12.91;82.61;102501.41;4861149;29;45581;-66
2023/11/23 08:55:08;;;;;;;;;9.75;8.25;;;;;12.62;83.01;102451.78;4843604;29;46507;-66
2023/11/23 08:57:37;;;;;;;;;7.75;7.75;;;;;12.62;82.38;102434.84;4844303;29;45414;-66
2023/11/23 09:00:09;;;;;;;;;8.50;7.75;;;;;13.02;83.17;102504.81;4843096;29;45695;-66
2023/11/23 09:02:37;;;;;;;;;5.25;5.00;;;;;12.88;82.57;102474.63;4849034;29;45734;-66
2023/11/23 09:05:07;;;;;;;;;11.50;10.00;;;;;13.02;83.33;102504.81;4837687;29;46480;-66
2023/11/23 09:07:33;;;;;;;;;6.00;6.00;;;;;13.11;83.38;102504.69;4846565;29;45462;-66
2023/11/23 09:09:58;;;;;;;;;9.75;8.75;;;;;13.08;83.50;102495.78;4845556;29;45339;-66
2023/11/23 09:12:33;;;;;;;;;;;;;;;;;;;;;
2023/11/23 09:15:02;;;;;;;;;8.75;8.25;;;;;13.01;83.77;102475.34;4845670;29;74555;-66
2023/11/23 09:17:34;;;;;;;;;12.50;10.50;;;;;12.95;83.96;102469.19;4859633;29;45869;-66
2023/11/23 09:20:05;;;;;;;;;15.50;15.00;;;;;13.06;84.02;102492.25;4839953;29;47078;-66
2023/11/23 09:22:33;;;;;;;;;11.00;11.00;;;;;13.13;84.14;102510.00;4844934;29;45688;-66
2023/11/23 09:25:06;;;;;;;;;14.75;14.25;;;;;13.06;84.32;102489.56;4846856;29;45572;-66
2023/11/23 09:27:39;;;;;;;;;13.50;13.50;;;;;13.00;84.56;102489.66;4852344;29;45501;-66
2023/11/23 09:30:07;;;;;;;;;14.50;14.00;;;;;13.19;84.61;102519.78;4850513;29;45390;-66
2023/11/23 09:32:35;;;;;;;;;19.50;14.00;;;;;12.98;84.86;102495.94;4836028;29;46170;-66
2023/11/23 09:35:10;;;;;;;;;13.00;12.75;;;;;13.10;84.92;102518.13;4856705;29;46996;-66
2023/11/23 09:37:41;;;;;;;;;14.00;14.00;;;;;13.07;85.12;102500.28;4866222;29;45514;-66
2023/11/23 09:40:18;;;;;;;;;12.50;11.50;;;;;12.86;85.77;102471.09;4829635;29;49540;-66
2023/11/23 09:42:46;;;;;;;;;9.75;9.50;;;;;12.94;85.19;102491.50;4849346;29;45449;-66
2023/11/23 09:45:19;;;;;;;;;12.75;11.00;;;;;12.98;85.54;102485.22;4846507;29;47138;-66
2023/11/23 09:47:47;;;;;;;;;11.00;10.50;;;;;13.15;85.94;102514.47;4844861;29;45487;-66
2023/11/23 09:50:15;;;;;;;;;13.50;12.50;;;;;12.94;86.08;102479.91;4844662;29;45361;-66
2023/11/23 09:52:42;;;;;;;;;8.75;8.75;;;;;13.14;86.30;102511.78;4848938;29;46540;-66
2023/11/23 09:55:16;;;;;;;;;9.50;9.50;;;;;13.23;86.12;102525.09;4862097;29;48107;-66
2023/11/23 09:57:52;;;;;;;;;11.00;8.50;;;;;13.01;85.98;102483.41;4847424;29;45459;-66
2023/11/23 10:00:18;;;;;;;;;12.00;9.00;;;;;12.94;86.13;102467.41;4853080;29;45507;-66
2023/11/23 10:03:05;;;;;;;;;11.25;8.25;;;;;13.23;85.72;102505.41;4846343;29;45420;-66
2023/11/23 10:05:32;;;;;;;;;8.00;6.25;;;;;13.24;86.47;102501.81;4854508;29;48007;-66
2023/11/23 10:08:00;;;;;;;;;8.50;7.00;;;;;13.28;86.46;102516.94;4844203;29;45627;-66
2023/11/23 10:10:27;;;;;;;;;12.25;10.00;;;;;13.02;86.62;102461.06;4861902;29;45532;-66
2023/11/23 10:12:56;;;;;;;;;9.00;9.00;;;;;13.15;86.56;102481.41;4845002;29;45583;-66
2023/11/23 10:15:25;;;;;;;;;8.25;8.00;;;;;13.12;86.41;102460.88;4846009;29;45597;-66
2023/11/23 10:17:52;;;;;;;;;8.25;7.75;;;;;13.16;86.39;102473.34;4844306;29;45605;-66
2023/11/23 10:20:21;;;;;;;;;10.00;10.00;;;;;13.12;86.10;102460.88;4845627;29;45646;-66
2023/11/23 10:22:50;;;;;;;;;9.00;9.00;;;;;13.24;86.47;102478.56;4845194;29;45524;-66
2023/11/23 10:25:34;;;;;;;;;;;;;;;;;;;;;
2023/11/23 10:28:07;;;;;;;;;12.25;8.00;;;;;13.26;86.55;102463.31;4846213;29;73422;-66
2023/11/23 10:30:36;;;;;;;;;8.00;6.75;;;;;13.41;86.80;102493.53;4844804;29;45427;-66
2023/11/23 10:33:04;;;;;;;;;6.50;6.50;;;;;13.28;86.24;102461.53;4842436;29;45921;-66
2023/11/23 10:35:46;;;;;;;;;9.25;8.00;;;;;13.33;86.25;102459.69;4844821;29;46798;-66
2023/11/23 10:38:17;;;;;;;;;8.75;8.75;;;;;13.33;86.15;102440.00;4842026;29;45611;-66
2023/11/23 10:40:46;;;;;;;;;9.25;8.00;;;;;13.22;86.08;102405.31;4843710;29;45475;-66
2023/11/23 10:43:23;;;;;;;;;;;;;;;;;;;;;
2023/11/23 10:45:53;;;;;;;;;8.50;5.75;;;;;13.53;86.33;102453.06;4846507;29;76506;-66
2023/11/23 10:48:26;;;;;;;;;6.50;6.00;;;;;13.27;86.58;102408.78;4859540;29;45826;-66
2023/11/23 10:50:55;;;;;;;;;5.50;5.00;;;;;13.45;86.03;102412.13;4843143;29;45591;-66
2023/11/23 10:53:34;;;;;;;;;;;;;;;;;;;;;
2023/11/23 10:56:17;;;;;;;;;9.75;8.00;;;;;13.46;86.61;102412.06;4840873;29;75234;-66
2023/11/23 10:58:49;;;;;;;;;9.00;9.00;;;;;13.53;86.00;102408.38;4846388;29;45947;-66
2023/11/23 11:01:21;;;;;;;;;8.75;8.75;;;;;13.68;86.04;102409.00;4843980;29;45941;-66
2023/11/23 11:03:54;;;;;;;;;8.50;6.75;;;;;13.64;85.67;102399.25;4837512;29;45832;-66
2023/11/23 11:06:23;;;;;;;;;8.75;8.00;;;;;13.56;85.69;102385.06;4858212;29;47971;-66
2023/11/23 11:08:49;;;;;;;;;6.00;6.00;;;;;13.75;85.64;102407.97;4842624;29;45760;-66
2023/11/23 11:11:27;;;;;;;;;9.00;8.75;;;;;13.45;85.74;102347.75;4842810;29;45439;-65
2023/11/23 11:14:02;;;;;;;;;8.75;6.25;;;;;13.74;85.73;102391.91;4842184;29;45821;-66
2023/11/23 11:17:01;;;;;;;;;10.00;9.00;;;;;13.65;85.29;102369.69;4843675;29;45543;-66
2023/11/23 11:19:27;;;;;;;;;9.50;8.75;;;;;13.65;85.52;102363.47;4842842;29;45754;-66
2023/11/23 11:22:00;;;;;;;;;13.25;10.50;;;;;13.80;85.66;102365.81;4849521;29;46621;-66
2023/11/23 11:24:25;;;;;;;;;12.00;9.00;;;;;13.78;85.54;102351.56;4841874;29;45809;-65
2023/11/23 11:27:01;;;;;;;;;9.25;9.25;;;;;13.59;85.73;102326.00;4840975;29;46021;-66
2023/11/23 11:29:32;;;;;;;;;8.50;7.25;;;;;13.74;85.96;102339.09;4838506;29;46463;-66